• Join FlightAware (Why Join?)
  • Login
  • US Flag 
03:57PM EDT


 

Airport Tracker/Info


-or-


 

Live Flight TrackerFlight Track Log ✈ AAY846 ✈ 15-Jul-2014 ✈ KPIE - KPIA

Flight Track Log - Related Links

Times and Time Zones

All times are in EDT time to prevent confusion due to time zone crossing. See the AAY846 flight status page for this flight to view local times or setup timezone preferences in your user account.

Time Position Orientation Groundspeed Altitude Reporting Facility
EDT Latitude Longitude Course Direction KTS MPH feet Rate Location/Type
08:33AM 27.8833 -82.6833 180° South 171 197 900  Level Tampa TRACON
08:34AM 27.8500 -82.6833 180° South 213 245 2,400 2,400 Climbing Tampa TRACON
08:35AM 27.8000 -82.7167 211° Southwest 244 281 5,000 2,820 Climbing Tampa TRACON
08:36AM 27.8000 -82.7667 270° West 235 270 7,500 2,580 Climbing Tampa TRACON
08:37AM 27.8500 -82.8167 319° Northwest 245 282 10,000 2,220 Climbing Tampa TRACON
08:38AM 27.9000 -82.8500 329° Northwest 255 293 12,000 960 Climbing Tampa TRACON
08:39AM 27.9917 -82.9025 333° Northwest 324 373 12,000 1,140 Level Miami Center
08:40AM 28.0969 -82.9094 357° North 371 427 14,400 2,400 Climbing Miami Center
08:41AM 28.1989 -82.9175 356° North 366 421 17,000 2,880 Climbing Miami Center
08:42AM 28.2928 -82.9225 357° North 339 390 20,400 2,580 Climbing Miami Center
08:43AM 28.3806 -82.9303 356° North 316 364 22,400 1,740 Climbing Miami Center
08:44AM 28.4675 -82.9431 353° North 314 361 24,100 1,500 Climbing Miami Center
08:45AM 28.5569 -82.9589 351° North 313 360 25,500 1,200 Climbing Jacksonville Center
08:46AM 28.6425 -82.9967 339° North 313 360 26,500 600 Climbing Jacksonville Center
08:47AM 28.7342 -83.0394 338° Northwest 332 382 26,800 180 Climbing Jacksonville Center
08:48AM 28.8364 -83.0989 333° Northwest 370 426 26,900 300 Climbing Jacksonville Center
08:49AM 28.9322 -83.1678 328° Northwest 398 458 27,400 900 Climbing Jacksonville Center
08:50AM 29.0386 -83.2203 337° Northwest 405 466 28,700 960 Climbing Jacksonville Center
08:51AM 29.1594 -83.2756 338° Northwest 412 474 29,400 540 Climbing Jacksonville Center
08:52AM 29.2847 -83.3069 348° North 431 496 29,800 300 Climbing Jacksonville Center
08:53AM 29.4139 -83.3383 348° North 456 525 30,000 60 Climbing Jacksonville Center
08:54AM 29.5411 -83.3725 347° North 468 539 30,000  Level Jacksonville Center
08:55AM 29.6725 -83.4042 348° North 473 544 30,000  Level Jacksonville Center
08:56AM 29.8039 -83.4408 346° North 473 544 30,000  Level Jacksonville Center
08:57AM 29.8975 -83.5394 318° Northwest 448 516 30,000 600 Level Jacksonville Center
08:58AM 29.9950 -83.6433 317° Northwest 461 531 31,300 960 Climbing Jacksonville Center
08:59AM 30.0925 -83.7425 319° Northwest 466 536 32,000 300 Climbing Jacksonville Center
09:00AM 30.1919 -83.8419 319° Northwest 471 542 32,000  Level Jacksonville Center
09:01AM 30.3169 -83.9008 338° Northwest 471 542 32,000  Level Jacksonville Center
09:02AM 30.4375 -83.9550 339° North 465 535 32,000  Level Jacksonville Center
09:03AM 30.5353 -84.0019 338° Northwest 465 535 32,100 600 Climbing Jacksonville Center
09:04AM 30.6683 -84.0639 338° Northwest 465 535 33,300 1,020 Climbing Jacksonville Center
09:05AM 30.7931 -84.1211 338° Northwest 475 547 34,200 1,080 Climbing Jacksonville Center
09:06AM 30.9261 -84.1833 338° Northwest 475 547 35,500 1,080 Climbing Jacksonville Center
09:07AM 31.0486 -84.2433 337° Northwest 470 541 36,400 900 Climbing Jacksonville Center
09:08AM 31.1692 -84.3008 338° Northwest 470 541 37,300 780 Climbing Jacksonville Center
09:09AM 31.2875 -84.3561 338° Northwest 470 541 38,000 180 Climbing Jacksonville Center
09:11AM 31.5497 -84.4800 338° Northwest 472 543 38,000  Level Atlanta Center
09:12AM 31.6706 -84.5367 338° Northwest 467 537 38,000  Level Atlanta Center
09:13AM 31.7892 -84.5936 338° Northwest 467 537 38,000  Level Atlanta Center
09:14AM 31.9058 -84.6481 338° Northwest 455 524 38,000  Level Atlanta Center
09:15AM 32.0244 -84.7053 338° Northwest 455 524 38,000  Level Atlanta Center
09:16AM 32.1431 -84.7625 338° Northwest 455 524 38,000  Level Atlanta Center
09:17AM 32.2575 -84.8175 338° Northwest 455 524 38,000  Level Atlanta Center
09:18AM 32.3722 -84.8675 340° North 450 518 38,000  Level Atlanta Center
09:19AM 32.4928 -84.9253 338° Northwest 450 518 38,000  Level Atlanta Center
09:20AM 32.6008 -84.9808 337° Northwest 450 518 38,000  Level Atlanta Center
09:21AM 32.7236 -85.0414 337° Northwest 452 520 38,000  Level Atlanta Center
09:22AM 32.8358 -85.0944 338° Northwest 452 520 38,000  Level Atlanta Center
09:23AM 32.9542 -85.1528 338° Northwest 452 520 38,000  Level Atlanta Center
09:24AM 33.0686 -85.2089 338° Northwest 452 520 38,000  Level Atlanta Center
09:25AM 33.1828 -85.2650 338° Northwest 452 520 38,000  Level Atlanta Center
09:26AM 33.2992 -85.3214 338° Northwest 452 520 38,000  Level Atlanta Center
09:27AM 33.4156 -85.3803 337° Northwest 452 520 38,000  Level Atlanta Center
09:28AM 33.5275 -85.4369 337° Northwest 452 520 38,000  Level Atlanta Center
09:34AM 34.1380 -85.7435 337° Northwest 442 509 38,000  Level FlightAware ADS-B (KMDQ)
09:34AM 34.2174 -85.7837 337° Northwest 441 507 38,000  Level FlightAware ADS-B (KMDQ)
09:35AM 34.2635 -85.8071 337° Northwest 441 507 38,000  Level FlightAware ADS-B (KMDQ)
09:37AM 34.4800 -85.9173 337° Northwest 443 510 38,000  Level FlightAware ADS-B (KMDQ)
09:37AM 34.5378 -85.9468 337° Northwest 443 510 38,000  Level FlightAware ADS-B (KMDQ)
09:38AM 34.6908 -86.0251 337° Northwest 446 513 38,000  Level FlightAware ADS-B (KMDQ)
09:39AM 34.7728 -86.0674 337° Northwest 449 517 38,000  Level FlightAware ADS-B (KMDQ)
09:40AM 34.8600 -86.1123 337° Northwest 450 518 38,000  Level FlightAware ADS-B (KMDQ)
09:41AM 34.9349 -86.1507 337° Northwest 453 521 38,000  Level FlightAware ADS-B (KMDQ)
09:41AM 35.0132 -86.1911 337° Northwest 453 521 38,000  Level FlightAware ADS-B (KMDQ)
09:42AM 35.0805 -86.2260 337° Northwest 452 520 38,000 60 Level FlightAware ADS-B (KMDQ)
09:43AM 35.1693 -86.2721 337° Northwest 449 517 38,100  Climbing FlightAware ADS-B (KMDQ)
09:43AM 35.2434 -86.3108 337° Northwest 446 513 38,000 -120 Descending FlightAware ADS-B (KMDQ)
09:44AM 35.3195 -86.3505 337° Northwest 445 512 38,000  Level FlightAware ADS-B (KMDQ)
09:45AM 35.3980 -86.3916 337° Northwest 446 513 38,000  Level FlightAware ADS-B (KMDQ)
09:45AM 35.4711 -86.4298 337° Northwest 450 518 38,000  Level FlightAware ADS-B (KMDQ)
09:46AM 35.5507 -86.4715 337° Northwest 453 521 38,000  Level FlightAware ADS-B (KMDQ)
09:47AM 35.6676 -86.5328 337° Northwest 456 525 38,000  Level FlightAware ADS-B (KMDQ)
09:48AM 35.7372 -86.5696 337° Northwest 458 527 38,000  Level FlightAware ADS-B (KMDQ)
09:48AM 35.8194 -86.6130 337° Northwest 458 527 38,000 60 Level FlightAware ADS-B (KMDQ)
09:49AM 35.9007 -86.6560 337° Northwest 455 524 38,100 60 Climbing FlightAware ADS-B (KMDQ)
09:50AM 35.9724 -86.6941 337° Northwest 451 519 38,100 -120 Level FlightAware ADS-B (KMDQ)
09:50AM 36.0541 -86.7375 337° Northwest 448 516 38,000 -120 Descending FlightAware ADS-B (KMDQ)
09:51AM 36.1257 -86.7756 337° Northwest 447 514 38,000  Level FlightAware ADS-B (KMDQ)
09:52AM 36.2038 -86.8174 337° Northwest 446 513 38,000  Level FlightAware ADS-B (KMDQ)
09:53AM 36.3165 -86.8776 337° Northwest 443 510 38,000  Level FlightAware ADS-B (KMDQ)
09:53AM 36.4130 -86.9296 336° Northwest 443 510 38,000  Level FlightAware ADS-B
09:54AM 36.4726 -86.9618 337° Northwest 441 507 38,000  Level FlightAware ADS-B
09:55AM 36.5082 -86.9809 337° Northwest 439 505 38,000  Level FlightAware ADS-B
10:01AM 37.2139 -87.3650 336° Northwest 447 514 38,000  Level FlightAware ADS-B
10:01AM 37.2774 -87.4000 336° Northwest 446 513 38,100 -240 Climbing FlightAware ADS-B
10:02AM 37.3492 -87.4394 336° Northwest 444 511 37,700 -780 Descending Memphis Center
10:02AM 37.4067 -87.4697 337° Northwest 443 510 37,200 -960 Descending Indianapolis Center
10:03AM 37.5203 -87.5342 336° Northwest 443 510 36,300 -600 Descending Indianapolis Center
10:04AM 37.6319 -87.5969 336° Northwest 442 509 36,000 -180 Descending Indianapolis Center
10:05AM 37.7447 -87.6581 337° Northwest 439 505 36,000  Level Indianapolis Center
10:07AM 37.8572 -87.7222 336° Northwest 439 505 36,000  Level Indianapolis Center
10:08AM 37.9678 -87.7842 336° Northwest 436 502 36,000  Level Indianapolis Center
10:09AM 38.0772 -87.8494 335° Northwest 433 498 36,000  Level Indianapolis Center
10:10AM 38.1864 -87.9147 335° Northwest 433 498 36,000  Level Indianapolis Center
10:11AM 38.3200 -87.9925 335° Northwest 433 498 36,000  Level Indianapolis Center
10:12AM 38.4311 -88.0600 335° Northwest 434 499 36,000  Level Indianapolis Center
10:13AM 38.5419 -88.1250 335° Northwest 434 499 36,000 -180 Level Indianapolis Center
10:14AM 38.6500 -88.1925 334° Northwest 433 498 35,700 -480 Descending Kansas City Center
10:15AM 38.7608 -88.2592 335° Northwest 433 498 35,000 -360 Descending Kansas City Center
10:16AM 38.8719 -88.3269 335° Northwest 435 501 35,000  Level Kansas City Center
10:17AM 38.9828 -88.3936 335° Northwest 438 504 35,000  Level Kansas City Center
10:18AM 39.0928 -88.4608 335° Northwest 438 504 35,000  Level Kansas City Center
10:19AM 39.2267 -88.5422 335° Northwest 438 504 35,000 -780 Level Kansas City Center
10:20AM 39.3281 -88.6036 335° Northwest 438 504 33,500 -2,340 Descending Kansas City Center
10:21AM 39.4347 -88.6692 335° Northwest 435 501 30,200 -3,300 Descending Kansas City Center
10:22AM 39.5439 -88.7356 335° Northwest 434 499 26,800 -3,540 Descending Kansas City Center
10:23AM 39.6692 -88.8128 335° Northwest 423 487 23,000 -3,360 Descending Kansas City Center
10:24AM 39.7678 -88.8819 332° Northwest 411 473 19,900 -2,280 Descending Kansas City Center
10:25AM 39.8539 -88.9611 325° Northwest 387 445 18,300 -1,680 Descending Kansas City Center
10:26AM 39.9319 -89.0294 326° Northwest 351 404 16,500 -1,740 Descending Kansas City Center
10:27AM 40.0067 -89.0969 325° Northwest 334 384 14,700 -1,260 Descending Kansas City Center
10:28AM 40.0900 -89.1706 326° Northwest 308 354 14,000 -540 Descending Kansas City Center
10:29AM 40.1542 -89.2292 325° Northwest 287 330 13,600 -600 Descending Kansas City Center
10:30AM 40.2156 -89.2861 325° Northwest 280 322 12,800 -840 Descending Kansas City Center
10:31AM 40.2433 -89.3106 326° Northwest 267 307 12,400 -1,020 Descending Chicago Center
10:32AM 40.2961 -89.3586 325° Northwest 251 289 11,300 -1,080 Descending Chicago Center
10:33AM 40.3425 -89.3989 327° Northwest 232 267 10,200 -1,860 Descending Chicago Center
10:34AM 40.3944 -89.4461 325° Northwest 211 243 7,500 -2,280 Descending Chicago Center
10:35AM 40.4361 -89.4844 325° Northwest 199 229 5,500 -1,680 Descending Chicago Center
10:36AM 40.4856 -89.5144 335° Northwest 192 221 4,100 -1,380 Descending Chicago Center
10:38AM 40.6164 -89.6498 323° Northwest  Level FlightAware Approximate
10:45AM 40.6500 -89.6833 323° Northwest  Level FlightAware Approximate
10:46AM 40.6642 -89.6933 323° Northwest  Level Estimated
10:47AM 40.6642 -89.6933 323° Northwest  Level Estimated
10:48AM 40.6642 -89.6933 323° Northwest  Level Estimated